地図

経路データ

SID SEASON NUMBER BASIN SUBBASIN NAME ISO_TIME NATURE LAT LON WMO_WIND WMO_PRES WMO_AGENCY TRACK_TYPE DIST2LAND LANDFALL IFLAG USA_AGENCY USA_ATCF_ID USA_LAT USA_LON USA_RECORD USA_STATUS USA_WIND USA_PRES USA_SSHS USA_R34_NE USA_R34_SE USA_R34_SW USA_R34_NW USA_R50_NE USA_R50_SE USA_R50_SW USA_R50_NW USA_R64_NE USA_R64_SE USA_R64_SW USA_R64_NW USA_POCI USA_ROCI USA_RMW USA_EYE TOKYO_LAT TOKYO_LON TOKYO_GRADE TOKYO_WIND TOKYO_PRES TOKYO_R50_DIR TOKYO_R50_LONG TOKYO_R50_SHORT TOKYO_R30_DIR TOKYO_R30_LONG TOKYO_R30_SHORT TOKYO_LAND CMA_LAT CMA_LON CMA_CAT CMA_WIND CMA_PRES HKO_LAT HKO_LON HKO_CAT HKO_WIND HKO_PRES NEWDELHI_LAT NEWDELHI_LON NEWDELHI_GRADE NEWDELHI_WIND NEWDELHI_PRES NEWDELHI_CI NEWDELHI_DP NEWDELHI_POCI REUNION_LAT REUNION_LON REUNION_TYPE REUNION_WIND REUNION_PRES REUNION_TNUM REUNION_CI REUNION_RMW REUNION_R34_NE REUNION_R34_SE REUNION_R34_SW REUNION_R34_NW REUNION_R50_NE REUNION_R50_SE REUNION_R50_SW REUNION_R50_NW REUNION_R64_NE REUNION_R64_SE REUNION_R64_SW REUNION_R64_NW BOM_LAT BOM_LON BOM_TYPE BOM_WIND BOM_PRES BOM_TNUM BOM_CI BOM_RMW BOM_R34_NE BOM_R34_SE BOM_R34_SW BOM_R34_NW BOM_R50_NE BOM_R50_SE BOM_R50_SW BOM_R50_NW BOM_R64_NE BOM_R64_SE BOM_R64_SW BOM_R64_NW BOM_ROCI BOM_POCI BOM_EYE BOM_POS_METHOD BOM_PRES_METHOD NADI_LAT NADI_LON NADI_CAT NADI_WIND NADI_PRES WELLINGTON_LAT WELLINGTON_LON WELLINGTON_WIND WELLINGTON_PRES DS824_LAT DS824_LON DS824_STAGE DS824_WIND DS824_PRES TD9636_LAT TD9636_LON TD9636_STAGE TD9636_WIND TD9636_PRES TD9635_LAT TD9635_LON TD9635_WIND TD9635_PRES TD9635_ROCI NEUMANN_LAT NEUMANN_LON NEUMANN_CLASS NEUMANN_WIND NEUMANN_PRES MLC_LAT MLC_LON MLC_CLASS MLC_WIND MLC_PRES USA_GUST BOM_GUST BOM_GUST_PER REUNION_GUST REUNION_GUST_PER USA_SEAHGT USA_SEARAD_NE USA_SEARAD_SE USA_SEARAD_SW USA_SEARAD_NW STORM_SPEED STORM_DIR
1953327N22305 1953 78 NA NA NOT_NAMED 1953-11-23 06:00:00 TS 22.1000 -55.3000 35 hurdat_atl main 1150 1150 O_____________ hurdat_atl AL131953 22.1000 -55.3000 TS 35 0 9 17
1953327N22305 1953 78 NA NA NOT_NAMED 1953-11-23 09:00:00 TS 22.5450 -55.1502 main 1175 1175 P_____________ AL131953 22.5450 -55.1502 TS 35 0 9 17
1953327N22305 1953 78 NA NA NOT_NAMED 1953-11-23 12:00:00 TS 23.0000 -55.0000 35 hurdat_atl main 1215 1215 O_____________ hurdat_atl AL131953 23.0000 -55.0000 TS 35 0 10 16
1953327N22305 1953 78 NA NA NOT_NAMED 1953-11-23 15:00:00 TS 23.4775 -54.8499 main 1257 1257 P_____________ AL131953 23.4775 -54.8499 TS 35 0 10 15
1953327N22305 1953 78 NA NA NOT_NAMED 1953-11-23 18:00:00 TS 24.0000 -54.7000 35 hurdat_atl main 1290 1290 O_____________ hurdat_atl AL131953 24.0000 -54.7000 TS 35 0 11 14
1953327N22305 1953 78 NA NA NOT_NAMED 1953-11-23 21:00:00 TS 24.5775 -54.5425 main 1340 1340 P_____________ AL131953 24.5775 -54.5425 TS 37 0 12 13
1953327N22305 1953 78 NA NA NOT_NAMED 1953-11-24 00:00:00 TS 25.2000 -54.4000 40 hurdat_atl main 1382 1382 O_____________ hurdat_atl AL131953 25.2000 -54.4000 TS 40 0 13 12
1953327N22305 1953 78 NA NA NOT_NAMED 1953-11-24 03:00:00 TS 25.8425 -54.2554 main 1426 1426 P_____________ AL131953 25.8425 -54.2554 TS 40 0 13 8
1953327N22305 1953 78 NA NA NOT_NAMED 1953-11-24 06:00:00 TS 26.5000 -54.2000 40 hurdat_atl main 1478 1478 O_____________ hurdat_atl AL131953 26.5000 -54.2000 TS 40 0 13 358
1953327N22305 1953 78 NA NA NOT_NAMED 1953-11-24 09:00:00 TS 27.1649 -54.2898 main 1517 1517 P_____________ AL131953 27.1649 -54.2898 TS 42 0 13 348
1953327N22305 1953 78 NA NA NOT_NAMED 1953-11-24 12:00:00 TS 27.8000 -54.5000 45 hurdat_atl main 1544 1544 O_____________ hurdat_atl AL131953 27.8000 -54.5000 TS 45 0 13 341
1953327N22305 1953 78 NA NA NOT_NAMED 1953-11-24 15:00:00 TS 28.4325 -54.7769 main 1567 1567 P_____________ AL131953 28.4325 -54.7769 TS 45 0 12 334
1953327N22305 1953 78 NA NA NOT_NAMED 1953-11-24 18:00:00 TS 28.9000 -55.1000 45 999 hurdat_atl main 1585 1578 O_____________ hurdat_atl AL131953 28.9000 -55.1000 TS 45 999 0 9 319
1953327N22305 1953 78 NA NA NOT_NAMED 1953-11-24 21:00:00 TS 29.0750 -55.4155 main 1581 1561 P_____________ AL131953 29.0750 -55.4155 TS 45 0 6 291
1953327N22305 1953 78 NA NA NOT_NAMED 1953-11-25 00:00:00 TS 29.1000 -55.7000 45 hurdat_atl main 1561 1548 O_____________ hurdat_atl AL131953 29.1000 -55.7000 TS 45 0 4 280
1953327N22305 1953 78 NA NA NOT_NAMED 1953-11-25 03:00:00 TS 29.1499 -55.9151 main 1548 1544 P_____________ AL131953 29.1499 -55.9151 TS 45 0 4 286
1953327N22305 1953 78 NA NA NOT_NAMED 1953-11-25 06:00:00 TS 29.2000 -56.1000 45 hurdat_atl main 1544 1538 O_____________ hurdat_atl AL131953 29.2000 -56.1000 TS 45 0 4 291
1953327N22305 1953 78 NA NA NOT_NAMED 1953-11-25 09:00:00 TS 29.2775 -56.3001 main 1540 1534 P_____________ AL131953 29.2775 -56.3001 TS 42 0 4 300
1953327N22305 1953 78 NA NA NOT_NAMED 1953-11-25 12:00:00 TS 29.4000 -56.5000 40 hurdat_atl main 1536 1530 O_____________ hurdat_atl AL131953 29.4000 -56.5000 TS 40 0 5 309
1953327N22305 1953 78 NA NA NOT_NAMED 1953-11-25 15:00:00 TS 29.5700 -56.7150 main 1542 1536 P_____________ AL131953 29.5700 -56.7150 TS 37 0 5 319
1953327N22305 1953 78 NA NA NOT_NAMED 1953-11-25 18:00:00 TS 29.8000 -56.9000 35 hurdat_atl main 1548 1548 O_____________ hurdat_atl AL131953 29.8000 -56.9000 TS 35 0 6 331
1953327N22305 1953 78 NA NA NOT_NAMED 1953-11-25 21:00:00 TS 30.0700 -57.0300 main 1569 1564 P_____________ AL131953 30.0700 -57.0300 TS 35 0 6 344
1953327N22305 1953 78 NA NA NOT_NAMED 1953-11-26 00:00:00 TS 30.4000 -57.1000 35 hurdat_atl main 1591 1591 O_____________ hurdat_atl AL131953 30.4000 -57.1000 TS 35 0 7 354
1953327N22305 1953 78 NA NA NOT_NAMED 1953-11-26 03:00:00 TS 30.7700 -57.1151 main 1587 1547 P_____________ AL131953 30.7700 -57.1151 TS 32 -1 8 1
1953327N22305 1953 78 NA NA NOT_NAMED 1953-11-26 06:00:00 TS 31.2000 -57.1000 30 hurdat_atl main 1547 1506 O_____________ hurdat_atl AL131953 31.2000 -57.1000 TD 30 -1 9 0
1953327N22305 1953 78 NA NA NOT_NAMED 1953-11-26 09:00:00 TS 31.6700 -57.1000 main 1496 1447 P_____________ AL131953 31.6700 -57.1000 TD 30 -1 10 1
1953327N22305 1953 78 NA NA NOT_NAMED 1953-11-26 12:00:00 TS 32.2000 -57.1000 30 hurdat_atl main 1447 1387 O_____________ hurdat_atl AL131953 32.2000 -57.1000 TD 30 -1 11 0
1953327N22305 1953 78 NA NA NOT_NAMED 1953-11-26 15:00:00 TS 32.7850 -57.1000 main 1387 1329 P_____________ AL131953 32.7850 -57.1000 TD 27 -1 12 1
1953327N22305 1953 78 NA NA NOT_NAMED 1953-11-26 18:00:00 TS 33.4000 -57.1000 25 hurdat_atl main 1329 O_____________ hurdat_atl AL131953 33.4000 -57.1000 TD 25 -1 12 2

IBTrACS Databaseについて

本データベースは、米国NOAAが公開する1842年以降の世界の熱帯低気圧のベストトラックデータアーカイブInternational Best Track Archive for Climate Stewardship (IBTrACS)を、ウェブで閲覧しやすい形式に変換したものです。

最終更新日:2021-10-21